sensor_id;sensor_type;location;lat;lon;timestamp;P1;durP1;ratioP1;P2;durP2;ratioP2
43297;SDS011;28892;55.640;37.532;2023-07-09T00:29:44;7.57;;;5.05;;
43297;SDS011;28892;55.640;37.532;2023-07-09T00:32:17;8.82;;;4.80;;
43297;SDS011;28892;55.640;37.532;2023-07-09T00:35:09;10.75;;;5.55;;
43297;SDS011;28892;55.640;37.532;2023-07-09T00:49:07;7.10;;;5.15;;
43297;SDS011;28892;55.640;37.532;2023-07-09T00:51:36;7.85;;;5.28;;
43297;SDS011;28892;55.640;37.532;2023-07-09T00:54:24;9.43;;;5.00;;
43297;SDS011;28892;55.640;37.532;2023-07-09T00:56:57;9.73;;;5.13;;
43297;SDS011;28892;55.640;37.532;2023-07-09T00:59:27;9.50;;;5.15;;
43297;SDS011;28892;55.640;37.532;2023-07-09T01:01:57;7.82;;;5.20;;
43297;SDS011;28892;55.640;37.532;2023-07-09T01:04:26;8.00;;;4.93;;
43297;SDS011;28892;55.640;37.532;2023-07-09T01:06:53;10.20;;;5.10;;
43297;SDS011;28892;55.640;37.532;2023-07-09T01:09:22;6.53;;;4.72;;
43297;SDS011;28892;55.640;37.532;2023-07-09T01:11:49;8.05;;;4.80;;
43297;SDS011;28892;55.640;37.532;2023-07-09T01:14:17;6.63;;;4.72;;
43297;SDS011;28892;55.640;37.532;2023-07-09T01:16:48;10.88;;;4.75;;
43297;SDS011;28892;55.640;37.532;2023-07-09T01:19:26;6.95;;;4.50;;
43297;SDS011;28892;55.640;37.532;2023-07-09T01:21:58;11.23;;;4.80;;
43297;SDS011;28892;55.640;37.532;2023-07-09T01:27:26;8.07;;;4.65;;
43297;SDS011;28892;55.640;37.532;2023-07-09T01:29:58;8.15;;;5.43;;
43297;SDS011;28892;55.640;37.532;2023-07-09T01:32:29;8.25;;;4.80;;
43297;SDS011;28892;55.640;37.532;2023-07-09T01:34:57;8.32;;;5.03;;
43297;SDS011;28892;55.640;37.532;2023-07-09T01:37:30;8.57;;;5.15;;
43297;SDS011;28892;55.640;37.532;2023-07-09T01:39:57;7.60;;;4.40;;
43297;SDS011;28892;55.640;37.532;2023-07-09T01:42:24;6.68;;;4.85;;
43297;SDS011;28892;55.640;37.532;2023-07-09T01:44:52;5.97;;;4.53;;
43297;SDS011;28892;55.640;37.532;2023-07-09T01:47:19;7.55;;;5.25;;
43297;SDS011;28892;55.640;37.532;2023-07-09T01:49:45;8.18;;;4.53;;
43297;SDS011;28892;55.640;37.532;2023-07-09T01:52:12;7.15;;;4.60;;
43297;SDS011;28892;55.640;37.532;2023-07-09T01:54:41;8.23;;;4.78;;
43297;SDS011;28892;55.640;37.532;2023-07-09T01:59:45;8.65;;;5.03;;
43297;SDS011;28892;55.640;37.532;2023-07-09T02:02:11;5.88;;;4.95;;
43297;SDS011;28892;55.640;37.532;2023-07-09T02:04:51;7.47;;;4.72;;
43297;SDS011;28892;55.640;37.532;2023-07-09T02:07:19;9.40;;;5.37;;
43297;SDS011;28892;55.640;37.532;2023-07-09T02:09:46;5.47;;;4.60;;
43297;SDS011;28892;55.640;37.532;2023-07-09T02:12:13;7.22;;;4.72;;
43297;SDS011;28892;55.640;37.532;2023-07-09T02:14:40;10.07;;;5.22;;
43297;SDS011;28892;55.640;37.532;2023-07-09T02:17:07;8.27;;;5.05;;
43297;SDS011;28892;55.640;37.532;2023-07-09T02:19:36;7.72;;;4.60;;
43297;SDS011;28892;55.640;37.532;2023-07-09T02:22:03;6.93;;;4.63;;
43297;SDS011;28892;55.640;37.532;2023-07-09T02:24:30;7.35;;;5.55;;
43297;SDS011;28892;55.640;37.532;2023-07-09T02:26:57;6.38;;;4.72;;
43297;SDS011;28892;55.640;37.532;2023-07-09T02:29:27;7.18;;;5.28;;
43297;SDS011;28892;55.640;37.532;2023-07-09T02:31:55;9.50;;;5.15;;
43297;SDS011;28892;55.640;37.532;2023-07-09T02:34:22;11.88;;;5.30;;
43297;SDS011;28892;55.640;37.532;2023-07-09T02:36:52;8.10;;;5.40;;
43297;SDS011;28892;55.640;37.532;2023-07-09T02:39:18;9.52;;;5.47;;
43297;SDS011;28892;55.640;37.532;2023-07-09T02:41:45;8.82;;;5.30;;
43297;SDS011;28892;55.640;37.532;2023-07-09T02:44:14;8.70;;;4.85;;
43297;SDS011;28892;55.640;37.532;2023-07-09T02:46:41;8.20;;;5.28;;
43297;SDS011;28892;55.640;37.532;2023-07-09T02:49:08;10.52;;;4.95;;
43297;SDS011;28892;55.640;37.532;2023-07-09T02:51:36;7.60;;;5.28;;
43297;SDS011;28892;55.640;37.532;2023-07-09T02:54:03;7.60;;;5.50;;
43297;SDS011;28892;55.640;37.532;2023-07-09T02:56:29;10.27;;;5.88;;
43297;SDS011;28892;55.640;37.532;2023-07-09T02:58:56;7.90;;;5.78;;
43297;SDS011;28892;55.640;37.532;2023-07-09T03:01:22;7.88;;;5.10;;
43297;SDS011;28892;55.640;37.532;2023-07-09T03:03:51;6.35;;;5.03;;
43297;SDS011;28892;55.640;37.532;2023-07-09T03:06:21;11.27;;;5.40;;
43297;SDS011;28892;55.640;37.532;2023-07-09T03:08:48;6.47;;;5.30;;
43297;SDS011;28892;55.640;37.532;2023-07-09T03:11:14;8.07;;;5.50;;
43297;SDS011;28892;55.640;37.532;2023-07-09T03:13:42;7.65;;;5.50;;
43297;SDS011;28892;55.640;37.532;2023-07-09T03:16:08;9.75;;;5.78;;
43297;SDS011;28892;55.640;37.532;2023-07-09T03:18:34;6.05;;;4.97;;
43297;SDS011;28892;55.640;37.532;2023-07-09T03:21:00;8.10;;;5.40;;
43297;SDS011;28892;55.640;37.532;2023-07-09T03:23:26;7.75;;;5.38;;
43297;SDS011;28892;55.640;37.532;2023-07-09T03:25:52;8.77;;;5.18;;
43297;SDS011;28892;55.640;37.532;2023-07-09T03:28:18;5.07;;;4.55;;
43297;SDS011;28892;55.640;37.532;2023-07-09T03:30:44;13.27;;;5.65;;
43297;SDS011;28892;55.640;37.532;2023-07-09T03:33:12;9.38;;;5.55;;
43297;SDS011;28892;55.640;37.532;2023-07-09T03:35:40;9.15;;;5.50;;
43297;SDS011;28892;55.640;37.532;2023-07-09T03:38:06;6.95;;;4.63;;
43297;SDS011;28892;55.640;37.532;2023-07-09T03:40:32;6.75;;;4.88;;
43297;SDS011;28892;55.640;37.532;2023-07-09T03:43:01;9.40;;;5.18;;
43297;SDS011;28892;55.640;37.532;2023-07-09T03:45:26;8.27;;;5.45;;
43297;SDS011;28892;55.640;37.532;2023-07-09T03:47:52;10.93;;;5.28;;
43297;SDS011;28892;55.640;37.532;2023-07-09T03:50:18;8.18;;;5.03;;
43297;SDS011;28892;55.640;37.532;2023-07-09T03:52:44;6.93;;;4.45;;
43297;SDS011;28892;55.640;37.532;2023-07-09T03:55:10;5.60;;;4.63;;
43297;SDS011;28892;55.640;37.532;2023-07-09T03:57:35;7.03;;;4.88;;
43297;SDS011;28892;55.640;37.532;2023-07-09T04:00:03;9.35;;;4.85;;
43297;SDS011;28892;55.640;37.532;2023-07-09T04:02:41;5.45;;;4.28;;
43297;SDS011;28892;55.640;37.532;2023-07-09T04:05:09;8.43;;;4.60;;
43297;SDS011;28892;55.640;37.532;2023-07-09T04:07:36;6.85;;;4.22;;
43297;SDS011;28892;55.640;37.532;2023-07-09T04:10:03;6.97;;;4.10;;
43297;SDS011;28892;55.640;37.532;2023-07-09T04:12:32;6.10;;;4.53;;
43297;SDS011;28892;55.640;37.532;2023-07-09T04:14:58;5.70;;;4.82;;
43297;SDS011;28892;55.640;37.532;2023-07-09T04:17:24;5.68;;;4.07;;
43297;SDS011;28892;55.640;37.532;2023-07-09T04:19:50;6.85;;;4.40;;
43297;SDS011;28892;55.640;37.532;2023-07-09T04:22:16;5.70;;;4.47;;
43297;SDS011;28892;55.640;37.532;2023-07-09T04:24:43;6.50;;;4.55;;
43297;SDS011;28892;55.640;37.532;2023-07-09T04:27:09;7.25;;;4.60;;
43297;SDS011;28892;55.640;37.532;2023-07-09T04:29:35;6.13;;;4.47;;
43297;SDS011;28892;55.640;37.532;2023-07-09T04:32:01;7.07;;;4.30;;
43297;SDS011;28892;55.640;37.532;2023-07-09T04:34:28;5.05;;;4.18;;
43297;SDS011;28892;55.640;37.532;2023-07-09T04:36:53;6.90;;;4.95;;
43297;SDS011;28892;55.640;37.532;2023-07-09T04:39:20;5.82;;;4.05;;
43297;SDS011;28892;55.640;37.532;2023-07-09T04:41:46;5.88;;;4.30;;
43297;SDS011;28892;55.640;37.532;2023-07-09T04:44:12;5.65;;;4.40;;
43297;SDS011;28892;55.640;37.532;2023-07-09T04:46:38;5.80;;;3.95;;
43297;SDS011;28892;55.640;37.532;2023-07-09T04:49:04;4.88;;;3.90;;
43297;SDS011;28892;55.640;37.532;2023-07-09T04:51:30;6.05;;;4.13;;
43297;SDS011;28892;55.640;37.532;2023-07-09T04:53:56;5.97;;;3.60;;
43297;SDS011;28892;55.640;37.532;2023-07-09T04:56:22;4.10;;;3.28;;
43297;SDS011;28892;55.640;37.532;2023-07-09T04:58:48;6.45;;;3.78;;
43297;SDS011;28892;55.640;37.532;2023-07-09T05:01:13;4.97;;;3.75;;
43297;SDS011;28892;55.640;37.532;2023-07-09T05:03:39;5.47;;;3.45;;
43297;SDS011;28892;55.640;37.532;2023-07-09T05:06:05;4.20;;;3.22;;
43297;SDS011;28892;55.640;37.532;2023-07-09T05:08:30;4.38;;;3.55;;
43297;SDS011;28892;55.640;37.532;2023-07-09T05:10:57;5.53;;;3.60;;
43297;SDS011;28892;55.640;37.532;2023-07-09T05:13:29;6.07;;;3.65;;
43297;SDS011;28892;55.640;37.532;2023-07-09T05:15:54;7.80;;;3.50;;
43297;SDS011;28892;55.640;37.532;2023-07-09T05:18:20;7.18;;;3.80;;
43297;SDS011;28892;55.640;37.532;2023-07-09T05:20:47;3.22;;;2.92;;
43297;SDS011;28892;55.640;37.532;2023-07-09T05:23:13;4.75;;;3.38;;
43297;SDS011;28892;55.640;37.532;2023-07-09T05:25:39;4.60;;;4.00;;
43297;SDS011;28892;55.640;37.532;2023-07-09T05:28:05;5.38;;;3.85;;
43297;SDS011;28892;55.640;37.532;2023-07-09T05:30:31;6.75;;;4.45;;
43297;SDS011;28892;55.640;37.532;2023-07-09T05:32:57;4.13;;;3.50;;
43297;SDS011;28892;55.640;37.532;2023-07-09T05:35:25;5.72;;;3.70;;
43297;SDS011;28892;55.640;37.532;2023-07-09T05:37:59;4.82;;;3.40;;
43297;SDS011;28892;55.640;37.532;2023-07-09T05:40:25;5.03;;;3.55;;
43297;SDS011;28892;55.640;37.532;2023-07-09T05:42:50;4.00;;;3.45;;
43297;SDS011;28892;55.640;37.532;2023-07-09T05:45:19;4.45;;;3.60;;
43297;SDS011;28892;55.640;37.532;2023-07-09T05:47:44;4.85;;;3.40;;
43297;SDS011;28892;55.640;37.532;2023-07-09T05:50:10;3.80;;;3.35;;
43297;SDS011;28892;55.640;37.532;2023-07-09T05:52:39;4.85;;;3.40;;
43297;SDS011;28892;55.640;37.532;2023-07-09T05:55:05;5.82;;;3.28;;
43297;SDS011;28892;55.640;37.532;2023-07-09T05:57:31;4.60;;;4.20;;
43297;SDS011;28892;55.640;37.532;2023-07-09T06:00:00;5.40;;;4.63;;
43297;SDS011;28892;55.640;37.532;2023-07-09T06:02:28;6.30;;;5.63;;
43297;SDS011;28892;55.640;37.532;2023-07-09T06:04:54;6.13;;;4.97;;
43297;SDS011;28892;55.640;37.532;2023-07-09T06:07:21;6.43;;;3.85;;
43297;SDS011;28892;55.640;37.532;2023-07-09T06:09:47;4.95;;;3.40;;
43297;SDS011;28892;55.640;37.532;2023-07-09T06:12:13;9.52;;;6.28;;
43297;SDS011;28892;55.640;37.532;2023-07-09T06:14:43;7.63;;;6.65;;
43297;SDS011;28892;55.640;37.532;2023-07-09T06:17:09;6.05;;;4.95;;
43297;SDS011;28892;55.640;37.532;2023-07-09T06:19:35;4.65;;;4.25;;
43297;SDS011;28892;55.640;37.532;2023-07-09T06:22:01;5.82;;;4.18;;
43297;SDS011;28892;55.640;37.532;2023-07-09T06:24:27;5.53;;;4.65;;
43297;SDS011;28892;55.640;37.532;2023-07-09T06:26:55;4.30;;;3.75;;
43297;SDS011;28892;55.640;37.532;2023-07-09T06:29:21;3.20;;;2.60;;
43297;SDS011;28892;55.640;37.532;2023-07-09T06:31:47;9.10;;;3.95;;
43297;SDS011;28892;55.640;37.532;2023-07-09T06:34:13;8.70;;;7.78;;
43297;SDS011;28892;55.640;37.532;2023-07-09T06:36:39;7.72;;;6.72;;
43297;SDS011;28892;55.640;37.532;2023-07-09T06:39:05;5.35;;;4.85;;
43297;SDS011;28892;55.640;37.532;2023-07-09T06:41:32;4.88;;;4.18;;
43297;SDS011;28892;55.640;37.532;2023-07-09T06:44:07;5.78;;;3.65;;
43297;SDS011;28892;55.640;37.532;2023-07-09T06:46:35;5.05;;;3.55;;
43297;SDS011;28892;55.640;37.532;2023-07-09T06:49:03;5.53;;;3.20;;
43297;SDS011;28892;55.640;37.532;2023-07-09T06:51:32;5.63;;;2.70;;
43297;SDS011;28892;55.640;37.532;2023-07-09T06:53:59;4.78;;;3.03;;
43297;SDS011;28892;55.640;37.532;2023-07-09T06:56:37;6.20;;;5.03;;
43297;SDS011;28892;55.640;37.532;2023-07-09T06:59:03;5.00;;;4.50;;
43297;SDS011;28892;55.640;37.532;2023-07-09T07:01:34;4.75;;;4.22;;
43297;SDS011;28892;55.640;37.532;2023-07-09T07:04:10;5.90;;;4.28;;
43297;SDS011;28892;55.640;37.532;2023-07-09T07:06:36;4.63;;;3.38;;
43297;SDS011;28892;55.640;37.532;2023-07-09T07:09:03;4.18;;;3.40;;
43297;SDS011;28892;55.640;37.532;2023-07-09T07:11:31;5.03;;;3.35;;
43297;SDS011;28892;55.640;37.532;2023-07-09T07:14:00;4.97;;;4.07;;
43297;SDS011;28892;55.640;37.532;2023-07-09T07:16:28;4.30;;;3.13;;
43297;SDS011;28892;55.640;37.532;2023-07-09T07:18:55;4.57;;;2.80;;
43297;SDS011;28892;55.640;37.532;2023-07-09T07:21:26;4.93;;;2.70;;
43297;SDS011;28892;55.640;37.532;2023-07-09T07:23:54;3.92;;;2.90;;
43297;SDS011;28892;55.640;37.532;2023-07-09T07:26:21;6.28;;;3.00;;
43297;SDS011;28892;55.640;37.532;2023-07-09T07:28:53;7.60;;;2.92;;
43297;SDS011;28892;55.640;37.532;2023-07-09T07:31:21;4.43;;;2.95;;
43297;SDS011;28892;55.640;37.532;2023-07-09T07:33:50;4.43;;;3.00;;
43297;SDS011;28892;55.640;37.532;2023-07-09T07:36:16;4.45;;;3.17;;
43297;SDS011;28892;55.640;37.532;2023-07-09T07:38:43;5.18;;;2.97;;
43297;SDS011;28892;55.640;37.532;2023-07-09T07:41:09;5.13;;;2.72;;
43297;SDS011;28892;55.640;37.532;2023-07-09T07:43:37;4.82;;;3.00;;
43297;SDS011;28892;55.640;37.532;2023-07-09T07:46:08;5.63;;;2.83;;
43297;SDS011;28892;55.640;37.532;2023-07-09T07:48:34;7.93;;;3.45;;
43297;SDS011;28892;55.640;37.532;2023-07-09T07:51:02;4.80;;;3.22;;
43297;SDS011;28892;55.640;37.532;2023-07-09T07:53:35;5.80;;;3.13;;
43297;SDS011;28892;55.640;37.532;2023-07-09T07:58:55;4.68;;;2.80;;
43297;SDS011;28892;55.640;37.532;2023-07-09T08:01:24;5.97;;;2.70;;
43297;SDS011;28892;55.640;37.532;2023-07-09T08:03:49;5.70;;;2.47;;
43297;SDS011;28892;55.640;37.532;2023-07-09T08:06:24;3.50;;;2.80;;
43297;SDS011;28892;55.640;37.532;2023-07-09T08:08:50;3.42;;;2.50;;
43297;SDS011;28892;55.640;37.532;2023-07-09T08:11:16;6.78;;;2.88;;
43297;SDS011;28892;55.640;37.532;2023-07-09T08:13:42;3.95;;;2.60;;
43297;SDS011;28892;55.640;37.532;2023-07-09T08:16:08;5.13;;;3.10;;
43297;SDS011;28892;55.640;37.532;2023-07-09T08:18:36;6.30;;;4.70;;
43297;SDS011;28892;55.640;37.532;2023-07-09T08:21:02;8.15;;;5.43;;
43297;SDS011;28892;55.640;37.532;2023-07-09T08:23:28;6.05;;;5.15;;
43297;SDS011;28892;55.640;37.532;2023-07-09T08:25:56;4.72;;;3.60;;
43297;SDS011;28892;55.640;37.532;2023-07-09T08:28:34;4.43;;;3.60;;
43297;SDS011;28892;55.640;37.532;2023-07-09T08:31:05;5.90;;;4.40;;
43297;SDS011;28892;55.640;37.532;2023-07-09T08:33:31;4.88;;;4.45;;
43297;SDS011;28892;55.640;37.532;2023-07-09T08:36:00;5.72;;;4.45;;
43297;SDS011;28892;55.640;37.532;2023-07-09T08:38:36;4.82;;;3.58;;
43297;SDS011;28892;55.640;37.532;2023-07-09T08:41:48;8.45;;;7.40;;
43297;SDS011;28892;55.640;37.532;2023-07-09T08:47:17;6.07;;;3.70;;
43297;SDS011;28892;55.640;37.532;2023-07-09T08:50:02;3.58;;;2.75;;
43297;SDS011;28892;55.640;37.532;2023-07-09T08:52:35;5.80;;;3.00;;
43297;SDS011;28892;55.640;37.532;2023-07-09T08:55:14;2.95;;;2.55;;
43297;SDS011;28892;55.640;37.532;2023-07-09T08:57:45;3.63;;;3.15;;
43297;SDS011;28892;55.640;37.532;2023-07-09T09:02:55;4.22;;;2.55;;
43297;SDS011;28892;55.640;37.532;2023-07-09T09:05:24;4.25;;;2.65;;
43297;SDS011;28892;55.640;37.532;2023-07-09T09:10:29;3.78;;;2.55;;
43297;SDS011;28892;55.640;37.532;2023-07-09T09:13:11;5.55;;;2.60;;
43297;SDS011;28892;55.640;37.532;2023-07-09T09:15:46;5.13;;;2.80;;
43297;SDS011;28892;55.640;37.532;2023-07-09T09:18:25;5.00;;;3.20;;
43297;SDS011;28892;55.640;37.532;2023-07-09T09:23:46;5.25;;;2.80;;
43297;SDS011;28892;55.640;37.532;2023-07-09T09:26:31;3.78;;;2.33;;
43297;SDS011;28892;55.640;37.532;2023-07-09T09:29:44;3.85;;;3.03;;
43297;SDS011;28892;55.640;37.532;2023-07-09T09:32:39;3.10;;;2.80;;
43297;SDS011;28892;55.640;37.532;2023-07-09T09:35:14;3.75;;;2.72;;
43297;SDS011;28892;55.640;37.532;2023-07-09T09:37:50;7.15;;;3.30;;
43297;SDS011;28892;55.640;37.532;2023-07-09T09:40:18;3.92;;;2.90;;
43297;SDS011;28892;55.640;37.532;2023-07-09T09:42:50;3.10;;;2.80;;
43297;SDS011;28892;55.640;37.532;2023-07-09T09:45:21;4.47;;;2.70;;
43297;SDS011;28892;55.640;37.532;2023-07-09T09:47:52;4.90;;;2.80;;
43297;SDS011;28892;55.640;37.532;2023-07-09T09:50:19;3.10;;;2.80;;
43297;SDS011;28892;55.640;37.532;2023-07-09T09:52:47;2.92;;;2.53;;
43297;SDS011;28892;55.640;37.532;2023-07-09T09:55:22;3.78;;;2.55;;
43297;SDS011;28892;55.640;37.532;2023-07-09T09:57:50;3.47;;;2.47;;
43297;SDS011;28892;55.640;37.532;2023-07-09T10:00:20;3.78;;;3.05;;
43297;SDS011;28892;55.640;37.532;2023-07-09T10:02:59;4.28;;;2.58;;
43297;SDS011;28892;55.640;37.532;2023-07-09T10:05:32;6.18;;;2.70;;
43297;SDS011;28892;55.640;37.532;2023-07-09T10:08:07;3.10;;;2.63;;
43297;SDS011;28892;55.640;37.532;2023-07-09T10:10:37;3.88;;;2.72;;
43297;SDS011;28892;55.640;37.532;2023-07-09T10:26:48;4.35;;;2.60;;
43297;SDS011;28892;55.640;37.532;2023-07-09T10:40:46;3.60;;;2.47;;
43297;SDS011;28892;55.640;37.532;2023-07-09T10:43:22;3.85;;;3.05;;
43297;SDS011;28892;55.640;37.532;2023-07-09T10:45:59;5.45;;;3.30;;
43297;SDS011;28892;55.640;37.532;2023-07-09T10:48:32;3.15;;;2.65;;
43297;SDS011;28892;55.640;37.532;2023-07-09T10:51:08;4.80;;;3.00;;
43297;SDS011;28892;55.640;37.532;2023-07-09T10:54:05;3.88;;;3.20;;
43297;SDS011;28892;55.640;37.532;2023-07-09T10:56:42;4.55;;;2.90;;
43297;SDS011;28892;55.640;37.532;2023-07-09T10:59:21;3.95;;;3.05;;
43297;SDS011;28892;55.640;37.532;2023-07-09T11:01:55;4.78;;;2.50;;
43297;SDS011;28892;55.640;37.532;2023-07-09T11:04:35;4.55;;;2.60;;
43297;SDS011;28892;55.640;37.532;2023-07-09T11:07:12;5.07;;;2.67;;
43297;SDS011;28892;55.640;37.532;2023-07-09T11:09:46;4.00;;;2.53;;
43297;SDS011;28892;55.640;37.532;2023-07-09T11:12:17;2.80;;;2.33;;
43297;SDS011;28892;55.640;37.532;2023-07-09T11:19:48;2.92;;;2.60;;
43297;SDS011;28892;55.640;37.532;2023-07-09T11:22:23;4.88;;;2.63;;
43297;SDS011;28892;55.640;37.532;2023-07-09T11:25:09;5.28;;;3.00;;
43297;SDS011;28892;55.640;37.532;2023-07-09T11:30:30;5.22;;;2.75;;
43297;SDS011;28892;55.640;37.532;2023-07-09T11:33:02;4.00;;;3.22;;
43297;SDS011;28892;55.640;37.532;2023-07-09T11:35:49;3.75;;;2.83;;
43297;SDS011;28892;55.640;37.532;2023-07-09T11:38:36;4.45;;;2.80;;
43297;SDS011;28892;55.640;37.532;2023-07-09T11:41:38;3.15;;;2.75;;
43297;SDS011;28892;55.640;37.532;2023-07-09T11:44:17;3.10;;;2.70;;
43297;SDS011;28892;55.640;37.532;2023-07-09T11:46:58;2.80;;;2.42;;
43297;SDS011;28892;55.640;37.532;2023-07-09T11:49:43;5.07;;;3.17;;
43297;SDS011;28892;55.640;37.532;2023-07-09T11:52:13;4.25;;;3.83;;
43297;SDS011;28892;55.640;37.532;2023-07-09T11:54:44;5.75;;;4.65;;
43297;SDS011;28892;55.640;37.532;2023-07-09T11:57:28;5.07;;;4.18;;
43297;SDS011;28892;55.640;37.532;2023-07-09T12:00:00;6.80;;;3.35;;
43297;SDS011;28892;55.640;37.532;2023-07-09T12:02:26;5.18;;;3.55;;
43297;SDS011;28892;55.640;37.532;2023-07-09T12:05:00;3.55;;;3.08;;
43297;SDS011;28892;55.640;37.532;2023-07-09T12:07:36;4.03;;;2.80;;
43297;SDS011;28892;55.640;37.532;2023-07-09T12:10:14;5.13;;;2.70;;
43297;SDS011;28892;55.640;37.532;2023-07-09T12:13:04;4.40;;;2.60;;
43297;SDS011;28892;55.640;37.532;2023-07-09T12:15:39;4.32;;;2.78;;
43297;SDS011;28892;55.640;37.532;2023-07-09T12:18:36;4.05;;;2.58;;
43297;SDS011;28892;55.640;37.532;2023-07-09T12:21:07;4.45;;;2.53;;
43297;SDS011;28892;55.640;37.532;2023-07-09T12:23:55;3.78;;;2.60;;
43297;SDS011;28892;55.640;37.532;2023-07-09T12:27:02;3.63;;;3.00;;
43297;SDS011;28892;55.640;37.532;2023-07-09T12:29:51;4.10;;;3.05;;
43297;SDS011;28892;55.640;37.532;2023-07-09T12:32:26;4.75;;;3.45;;
43297;SDS011;28892;55.640;37.532;2023-07-09T12:34:57;5.18;;;3.00;;
43297;SDS011;28892;55.640;37.532;2023-07-09T12:37:43;5.45;;;4.95;;
43297;SDS011;28892;55.640;37.532;2023-07-09T12:40:28;6.22;;;5.63;;
43297;SDS011;28892;55.640;37.532;2023-07-09T12:43:05;6.60;;;4.07;;
43297;SDS011;28892;55.640;37.532;2023-07-09T12:45:56;5.95;;;3.88;;
43297;SDS011;28892;55.640;37.532;2023-07-09T12:48:45;12.10;;;4.70;;
43297;SDS011;28892;55.640;37.532;2023-07-09T12:51:39;24.20;;;9.20;;
43297;SDS011;28892;55.640;37.532;2023-07-09T12:54:38;26.73;;;9.60;;
43297;SDS011;28892;55.640;37.532;2023-07-09T12:57:37;21.05;;;9.48;;
43297;SDS011;28892;55.640;37.532;2023-07-09T13:00:39;25.15;;;8.43;;
43297;SDS011;28892;55.640;37.532;2023-07-09T13:03:27;12.02;;;5.88;;
43297;SDS011;28892;55.640;37.532;2023-07-09T13:06:03;13.02;;;4.63;;
43297;SDS011;28892;55.640;37.532;2023-07-09T13:08:58;5.18;;;2.60;;
43297;SDS011;28892;55.640;37.532;2023-07-09T13:11:34;6.00;;;3.05;;
43297;SDS011;28892;55.640;37.532;2023-07-09T13:14:19;6.63;;;3.65;;
43297;SDS011;28892;55.640;37.532;2023-07-09T13:17:11;16.67;;;7.03;;
43297;SDS011;28892;55.640;37.532;2023-07-09T13:19:43;7.57;;;3.75;;
43297;SDS011;28892;55.640;37.532;2023-07-09T13:22:32;14.90;;;6.97;;
43297;SDS011;28892;55.640;37.532;2023-07-09T13:25:04;6.22;;;3.78;;
43297;SDS011;28892;55.640;37.532;2023-07-09T13:27:58;5.13;;;3.42;;
43297;SDS011;28892;55.640;37.532;2023-07-09T13:30:28;6.75;;;3.28;;
43297;SDS011;28892;55.640;37.532;2023-07-09T13:33:32;6.00;;;4.10;;
43297;SDS011;28892;55.640;37.532;2023-07-09T13:36:13;3.97;;;3.60;;
43297;SDS011;28892;55.640;37.532;2023-07-09T13:38:49;8.73;;;4.10;;
43297;SDS011;28892;55.640;37.532;2023-07-09T13:41:21;3.88;;;3.33;;
43297;SDS011;28892;55.640;37.532;2023-07-09T13:43:55;3.33;;;3.03;;
43297;SDS011;28892;55.640;37.532;2023-07-09T13:46:49;6.90;;;3.17;;
43297;SDS011;28892;55.640;37.532;2023-07-09T13:49:24;5.95;;;3.28;;
43297;SDS011;28892;55.640;37.532;2023-07-09T13:52:16;3.63;;;3.33;;
43297;SDS011;28892;55.640;37.532;2023-07-09T13:55:23;5.45;;;3.47;;
43297;SDS011;28892;55.640;37.532;2023-07-09T13:57:50;3.92;;;3.53;;
43297;SDS011;28892;55.640;37.532;2023-07-09T14:00:16;4.30;;;3.38;;
43297;SDS011;28892;55.640;37.532;2023-07-09T14:02:43;6.22;;;3.83;;
43297;SDS011;28892;55.640;37.532;2023-07-09T14:05:11;3.70;;;3.35;;
43297;SDS011;28892;55.640;37.532;2023-07-09T14:07:40;5.18;;;3.60;;
43297;SDS011;28892;55.640;37.532;2023-07-09T14:10:11;5.93;;;3.28;;
43297;SDS011;28892;55.640;37.532;2023-07-09T14:12:39;5.45;;;3.30;;
43297;SDS011;28892;55.640;37.532;2023-07-09T14:15:13;5.13;;;3.58;;
43297;SDS011;28892;55.640;37.532;2023-07-09T14:17:46;5.90;;;3.83;;
43297;SDS011;28892;55.640;37.532;2023-07-09T14:20:22;4.10;;;3.42;;
43297;SDS011;28892;55.640;37.532;2023-07-09T14:22:54;6.40;;;2.83;;
43297;SDS011;28892;55.640;37.532;2023-07-09T14:25:21;4.85;;;2.75;;
43297;SDS011;28892;55.640;37.532;2023-07-09T14:28:18;5.50;;;2.70;;
43297;SDS011;28892;55.640;37.532;2023-07-09T14:30:49;3.30;;;2.88;;
43297;SDS011;28892;55.640;37.532;2023-07-09T14:33:17;5.40;;;3.25;;
43297;SDS011;28892;55.640;37.532;2023-07-09T14:35:45;4.13;;;2.75;;
43297;SDS011;28892;55.640;37.532;2023-07-09T14:38:22;3.00;;;2.70;;
43297;SDS011;28892;55.640;37.532;2023-07-09T14:40:50;8.68;;;3.40;;
43297;SDS011;28892;55.640;37.532;2023-07-09T14:43:23;4.45;;;2.70;;
43297;SDS011;28892;55.640;37.532;2023-07-09T14:45:51;4.57;;;2.88;;
43297;SDS011;28892;55.640;37.532;2023-07-09T14:48:20;5.68;;;2.80;;
43297;SDS011;28892;55.640;37.532;2023-07-09T14:50:49;4.63;;;3.13;;
43297;SDS011;28892;55.640;37.532;2023-07-09T14:53:20;5.57;;;3.05;;
43297;SDS011;28892;55.640;37.532;2023-07-09T14:55:49;4.03;;;2.70;;
43297;SDS011;28892;55.640;37.532;2023-07-09T14:58:16;4.28;;;3.88;;
43297;SDS011;28892;55.640;37.532;2023-07-09T15:00:47;8.37;;;7.63;;
43297;SDS011;28892;55.640;37.532;2023-07-09T15:03:21;6.93;;;6.28;;
43297;SDS011;28892;55.640;37.532;2023-07-09T15:05:53;5.22;;;4.13;;
43297;SDS011;28892;55.640;37.532;2023-07-09T15:08:23;5.38;;;4.63;;
43297;SDS011;28892;55.640;37.532;2023-07-09T15:10:51;3.45;;;3.10;;
43297;SDS011;28892;55.640;37.532;2023-07-09T15:13:21;4.10;;;3.33;;
43297;SDS011;28892;55.640;37.532;2023-07-09T15:15:47;4.57;;;3.40;;
43297;SDS011;28892;55.640;37.532;2023-07-09T15:18:14;8.52;;;5.15;;
43297;SDS011;28892;55.640;37.532;2023-07-09T15:20:43;8.27;;;7.47;;
43297;SDS011;28892;55.640;37.532;2023-07-09T15:23:14;4.38;;;3.22;;
43297;SDS011;28892;55.640;37.532;2023-07-09T15:25:41;8.10;;;5.22;;
43297;SDS011;28892;55.640;37.532;2023-07-09T15:28:11;5.57;;;4.07;;
43297;SDS011;28892;55.640;37.532;2023-07-09T15:30:40;6.47;;;3.92;;
43297;SDS011;28892;55.640;37.532;2023-07-09T15:33:18;3.28;;;2.97;;
43297;SDS011;28892;55.640;37.532;2023-07-09T15:35:46;5.05;;;2.90;;
43297;SDS011;28892;55.640;37.532;2023-07-09T15:38:27;4.85;;;2.95;;
43297;SDS011;28892;55.640;37.532;2023-07-09T15:40:56;4.30;;;2.85;;
43297;SDS011;28892;55.640;37.532;2023-07-09T15:43:23;5.07;;;3.05;;
43297;SDS011;28892;55.640;37.532;2023-07-09T15:45:50;5.53;;;2.88;;
43297;SDS011;28892;55.640;37.532;2023-07-09T15:48:30;4.45;;;3.30;;
43297;SDS011;28892;55.640;37.532;2023-07-09T15:51:07;4.07;;;3.60;;
43297;SDS011;28892;55.640;37.532;2023-07-09T15:53:37;4.15;;;3.75;;
43297;SDS011;28892;55.640;37.532;2023-07-09T15:56:25;7.05;;;3.97;;
43297;SDS011;28892;55.640;37.532;2023-07-09T15:58:58;4.72;;;3.72;;
43297;SDS011;28892;55.640;37.532;2023-07-09T16:01:26;6.65;;;4.15;;
43297;SDS011;28892;55.640;37.532;2023-07-09T16:04:01;4.13;;;3.72;;
43297;SDS011;28892;55.640;37.532;2023-07-09T16:06:39;4.57;;;2.78;;
43297;SDS011;28892;55.640;37.532;2023-07-09T16:09:06;5.40;;;3.20;;
43297;SDS011;28892;55.640;37.532;2023-07-09T16:11:32;6.40;;;3.28;;
43297;SDS011;28892;55.640;37.532;2023-07-09T16:14:04;6.47;;;2.75;;
43297;SDS011;28892;55.640;37.532;2023-07-09T16:16:58;4.97;;;3.05;;
43297;SDS011;28892;55.640;37.532;2023-07-09T16:19:36;4.90;;;2.50;;
43297;SDS011;28892;55.640;37.532;2023-07-09T16:22:03;4.03;;;2.83;;
43297;SDS011;28892;55.640;37.532;2023-07-09T16:24:43;3.72;;;2.63;;
43297;SDS011;28892;55.640;37.532;2023-07-09T16:27:21;3.08;;;2.53;;
43297;SDS011;28892;55.640;37.532;2023-07-09T16:29:58;3.80;;;2.38;;
43297;SDS011;28892;55.640;37.532;2023-07-09T16:32:29;5.25;;;2.60;;
43297;SDS011;28892;55.640;37.532;2023-07-09T16:34:59;2.55;;;2.22;;